Time;durP1;ratioP1;P1;durP2;ratioP2;P2;SDS_P1;SDS_P2;PMS_P1;PMS_P2;Temp;Humidity;BMP_temperature;BMP_pressure;BME280_temperature;BME280_humidity;BME280_pressure;Samples;Min_cycle;Max_cycle;Signal;HPM_P1;HPM_P2
2023/08/15 00:02:16;;;;;;;8.25;2.28;;;;;;;;;;5017023;28;20071;-72
2023/08/15 00:04:42;;;;;;;9.13;1.98;;;;;;;;;;5017797;28;20044;-72
2023/08/15 00:07:07;;;;;;;10.43;2.20;;;;;;;;;;5014677;28;20158;-72
2023/08/15 00:09:33;;;;;;;9.00;2.00;;;;;;;;;;5017114;28;20067;-72
2023/08/15 00:12:01;;;;;;;6.40;1.80;;;;;;;;;;5015076;28;20041;-73
2023/08/15 00:14:27;;;;;;;9.68;2.20;;;;;;;;;;5018761;28;20057;-72
2023/08/15 00:16:52;;;;;;;9.35;2.35;;;;;;;;;;5015182;28;20394;-72
2023/08/15 00:19:20;;;;;;;9.27;2.05;;;;;;;;;;5021679;28;20474;-72
2023/08/15 00:21:45;;;;;;;8.90;2.40;;;;;;;;;;5016243;28;20025;-72
2023/08/15 00:24:10;;;;;;;11.40;2.25;;;;;;;;;;5047307;28;20056;-72
2023/08/15 00:26:36;;;;;;;9.73;2.35;;;;;;;;;;5028843;28;20036;-72
2023/08/15 00:29:01;;;;;;;10.15;2.40;;;;;;;;;;5017104;28;20048;-72
2023/08/15 00:31:26;;;;;;;9.77;2.70;;;;;;;;;;5015674;28;20041;-72
2023/08/15 00:33:51;;;;;;;10.90;2.58;;;;;;;;;;5014290;28;20086;-72
2023/08/15 00:36:17;;;;;;;11.68;2.67;;;;;;;;;;5015987;28;20041;-73
2023/08/15 00:38:43;;;;;;;9.65;2.63;;;;;;;;;;5015210;28;20494;-72
2023/08/15 00:41:08;;;;;;;10.18;2.53;;;;;;;;;;5021052;28;22363;-70
2023/08/15 00:43:34;;;;;;;9.23;2.40;;;;;;;;;;5016375;28;20566;-71
2023/08/15 00:45:59;;;;;;;10.55;2.75;;;;;;;;;;5023842;28;20049;-70
2023/08/15 00:48:29;;;;;;;12.82;2.80;;;;;;;;;;5016953;28;20083;-70
2023/08/15 00:50:55;;;;;;;8.02;2.22;;;;;;;;;;5017277;28;20041;-71
2023/08/15 00:53:23;;;;;;;12.38;2.85;;;;;;;;;;5020135;28;20039;-70
2023/08/15 00:55:49;;;;;;;12.05;2.85;;;;;;;;;;5016055;28;20042;-71
2023/08/15 00:58:17;;;;;;;10.80;2.60;;;;;;;;;;5016768;28;20083;-71
2023/08/15 01:00:42;;;;;;;9.88;2.50;;;;;;;;;;5017636;28;20077;-71
2023/08/15 01:03:09;;;;;;;10.25;2.42;;;;;;;;;;5004132;28;20037;-71
2023/08/15 01:05:34;;;;;;;8.90;2.75;;;;;;;;;;5016595;28;20030;-71
2023/08/15 01:08:00;;;;;;;11.63;2.83;;;;;;;;;;5017923;28;20041;-71
2023/08/15 01:10:25;;;;;;;11.80;2.80;;;;;;;;;;5015595;28;20541;-71
2023/08/15 01:13:18;;;;;;;11.40;2.97;;;;;;;;;;5021404;28;20037;-71
2023/08/15 01:15:47;;;;;;;13.18;3.00;;;;;;;;;;5008440;28;20548;-71
2023/08/15 01:18:22;;;;;;;12.30;3.03;;;;;;;;;;5015665;28;20037;-71
2023/08/15 01:20:49;;;;;;;12.63;2.80;;;;;;;;;;5015787;28;20047;-71
2023/08/15 01:23:15;;;;;;;10.85;2.97;;;;;;;;;;5015837;28;20049;-71
2023/08/15 01:25:42;;;;;;;13.63;3.22;;;;;;;;;;5015700;28;20113;-71
2023/08/15 01:28:16;;;;;;;10.80;2.72;;;;;;;;;;5021901;28;20611;-73
2023/08/15 01:31:11;;;;;;;12.68;3.47;;;;;;;;;;5022533;28;20033;-72
2023/08/15 01:33:37;;;;;;;10.57;3.05;;;;;;;;;;5021798;28;20095;-72
2023/08/15 01:36:05;;;;;;;15.40;3.10;;;;;;;;;;5020748;28;20045;-72
2023/08/15 01:38:33;;;;;;;14.60;2.73;;;;;;;;;;5020187;28;20091;-72
2023/08/15 01:41:00;;;;;;;11.88;2.83;;;;;;;;;;5021906;28;20298;-72
2023/08/15 01:43:26;;;;;;;9.95;2.97;;;;;;;;;;5019594;28;20049;-71
2023/08/15 01:45:51;;;;;;;13.63;3.22;;;;;;;;;;5018728;28;20148;-72
2023/08/15 01:48:17;;;;;;;11.63;3.13;;;;;;;;;;5015393;28;20033;-71
2023/08/15 01:50:42;;;;;;;12.75;3.08;;;;;;;;;;5017855;28;20041;-72
2023/08/15 01:53:07;;;;;;;12.43;3.15;;;;;;;;;;5035378;28;20508;-72
2023/08/15 01:55:33;;;;;;;10.93;3.15;;;;;;;;;;5021523;28;20044;-73
2023/08/15 01:57:58;;;;;;;14.45;3.33;;;;;;;;;;5017215;28;20037;-72
2023/08/15 02:00:23;;;;;;;13.40;3.38;;;;;;;;;;5019015;28;20152;-72
2023/08/15 02:02:48;;;;;;;15.48;3.47;;;;;;;;;;5019037;28;20106;-72
2023/08/15 02:05:14;;;;;;;18.35;3.50;;;;;;;;;;5020104;28;20593;-73
2023/08/15 02:07:39;;;;;;;14.68;3.30;;;;;;;;;;5018380;28;20484;-73
2023/08/15 02:10:05;;;;;;;16.60;3.63;;;;;;;;;;5025032;28;20026;-73
2023/08/15 02:12:30;;;;;;;14.70;3.40;;;;;;;;;;5024847;28;20041;-73
2023/08/15 02:14:55;;;;;;;14.77;3.58;;;;;;;;;;5018659;28;20052;-73
2023/08/15 02:17:21;;;;;;;11.38;3.13;;;;;;;;;;5020188;28;20045;-73
2023/08/15 02:19:48;;;;;;;14.55;3.20;;;;;;;;;;5048461;28;20148;-73
2023/08/15 02:22:13;;;;;;;11.35;3.35;;;;;;;;;;5018059;28;20048;-74
2023/08/15 02:24:39;;;;;;;15.50;3.55;;;;;;;;;;5047711;28;20030;-72
2023/08/15 02:27:05;;;;;;;14.27;3.30;;;;;;;;;;5018799;28;20882;-73
2023/08/15 02:29:32;;;;;;;12.43;3.30;;;;;;;;;;5006064;28;20130;-73
2023/08/15 02:31:57;;;;;;;16.23;3.25;;;;;;;;;;5019458;28;20761;-73
2023/08/15 02:34:23;;;;;;;14.98;3.45;;;;;;;;;;5020110;28;20040;-73
2023/08/15 02:36:48;;;;;;;18.02;3.50;;;;;;;;;;5019506;28;20041;-73
2023/08/15 02:39:16;;;;;;;15.98;3.22;;;;;;;;;;5015451;28;20129;-73
2023/08/15 02:41:42;;;;;;;19.23;3.78;;;;;;;;;;5017846;28;20603;-73
2023/08/15 02:44:10;;;;;;;12.73;3.55;;;;;;;;;;5017803;28;20033;-73
2023/08/15 02:46:35;;;;;;;17.25;3.70;;;;;;;;;;5025006;28;20057;-73
2023/08/15 02:49:00;;;;;;;16.10;3.55;;;;;;;;;;5016249;28;20047;-73
2023/08/15 02:51:26;;;;;;;14.95;3.80;;;;;;;;;;5011748;28;20040;-73
2023/08/15 02:53:51;;;;;;;13.20;3.05;;;;;;;;;;5018978;28;20036;-73
2023/08/15 02:56:19;;;;;;;13.32;3.20;;;;;;;;;;5016980;28;20137;-72
2023/08/15 02:58:44;;;;;;;13.10;3.10;;;;;;;;;;5006242;28;20099;-74
2023/08/15 03:01:10;;;;;;;14.38;3.63;;;;;;;;;;5018277;28;20664;-72
2023/08/15 03:03:37;;;;;;;15.82;3.55;;;;;;;;;;5022022;28;20093;-72
2023/08/15 03:06:05;;;;;;;14.95;3.38;;;;;;;;;;5016829;28;20215;-72
2023/08/15 03:08:30;;;;;;;14.98;3.13;;;;;;;;;;5049620;28;20562;-72
2023/08/15 03:10:56;;;;;;;11.98;3.00;;;;;;;;;;5019416;28;20090;-72
2023/08/15 03:13:24;;;;;;;15.13;3.28;;;;;;;;;;5017795;28;20506;-72
2023/08/15 03:15:55;;;;;;;15.20;3.35;;;;;;;;;;5014793;28;20053;-72
2023/08/15 03:18:20;;;;;;;10.23;3.38;;;;;;;;;;5015668;28;22357;-72
2023/08/15 03:20:56;;;;;;;14.10;3.78;;;;;;;;;;5018163;28;20111;-74
2023/08/15 03:23:24;;;;;;;11.15;3.20;;;;;;;;;;5036364;28;20041;-74
2023/08/15 03:25:55;;;;;;;11.20;3.90;;;;;;;;;;5015654;28;20106;-72
2023/08/15 03:28:20;;;;;;;11.70;3.70;;;;;;;;;;5016245;28;20045;-73
2023/08/15 03:30:46;;;;;;;16.38;3.97;;;;;;;;;;5014589;28;20037;-74
2023/08/15 03:33:11;;;;;;;11.52;3.30;;;;;;;;;;5015042;28;20040;-72
2023/08/15 03:35:43;;;;;;;15.18;3.25;;;;;;;;;;4995419;28;20040;-73
2023/08/15 03:38:10;;;;;;;11.02;3.38;;;;;;;;;;5015999;28;20064;-73
2023/08/15 03:40:35;;;;;;;21.58;4.03;;;;;;;;;;5046282;28;20391;-70
2023/08/15 03:43:01;;;;;;;14.60;3.60;;;;;;;;;;5014985;28;20028;-73
2023/08/15 03:45:28;;;;;;;9.77;3.15;;;;;;;;;;5018254;28;20037;-74
2023/08/15 03:47:55;;;;;;;11.05;3.03;;;;;;;;;;5019434;28;20029;-73
2023/08/15 03:50:20;;;;;;;13.02;3.15;;;;;;;;;;5013932;28;20033;-72
2023/08/15 03:52:48;;;;;;;13.95;3.40;;;;;;;;;;4993301;28;20084;-72
2023/08/15 03:55:13;;;;;;;11.95;3.00;;;;;;;;;;4995303;28;20033;-72
2023/08/15 03:57:39;;;;;;;11.68;3.10;;;;;;;;;;4992504;28;20042;-72
2023/08/15 04:00:05;;;;;;;14.50;3.35;;;;;;;;;;4998472;28;20515;-72
2023/08/15 04:02:30;;;;;;;12.23;3.30;;;;;;;;;;4995413;28;20036;-72
2023/08/15 04:04:55;;;;;;;12.98;3.53;;;;;;;;;;4997080;28;20198;-72
2023/08/15 04:07:21;;;;;;;17.23;4.05;;;;;;;;;;5005604;28;22264;-72
2023/08/15 04:09:46;;;;;;;15.05;3.38;;;;;;;;;;5009101;28;20522;-72
2023/08/15 04:12:12;;;;;;;15.63;3.33;;;;;;;;;;4998489;28;20125;-72
2023/08/15 04:14:37;;;;;;;12.45;3.17;;;;;;;;;;4995785;28;20030;-72
2023/08/15 04:17:03;;;;;;;13.60;3.28;;;;;;;;;;4996129;28;20030;-72
2023/08/15 04:19:29;;;;;;;13.05;3.17;;;;;;;;;;4996290;28;20041;-72
2023/08/15 04:21:54;;;;;;;12.63;3.25;;;;;;;;;;4995774;28;20052;-75
2023/08/15 04:24:20;;;;;;;12.20;3.40;;;;;;;;;;5003443;28;20037;-76
2023/08/15 04:26:45;;;;;;;13.85;3.53;;;;;;;;;;5003095;28;20124;-76
2023/08/15 04:29:10;;;;;;;11.75;3.50;;;;;;;;;;4999928;28;20120;-76
2023/08/15 04:31:36;;;;;;;11.07;3.33;;;;;;;;;;4995892;28;20033;-75
2023/08/15 04:34:01;;;;;;;16.27;3.78;;;;;;;;;;4998167;28;20041;-74
2023/08/15 04:36:26;;;;;;;12.30;3.38;;;;;;;;;;5013112;28;20640;-76
2023/08/15 04:38:51;;;;;;;12.18;3.15;;;;;;;;;;5015633;28;20756;-77
2023/08/15 04:41:17;;;;;;;12.70;3.60;;;;;;;;;;5019153;28;20040;-74
2023/08/15 04:43:42;;;;;;;16.38;3.47;;;;;;;;;;5019372;28;20037;-73
2023/08/15 04:46:07;;;;;;;13.90;3.40;;;;;;;;;;5049643;28;20096;-71
2023/08/15 04:48:33;;;;;;;14.80;3.22;;;;;;;;;;5019040;28;20041;-74
2023/08/15 04:51:00;;;;;;;15.95;3.40;;;;;;;;;;5019138;28;20037;-75
2023/08/15 04:53:28;;;;;;;10.55;3.20;;;;;;;;;;5016134;28;20067;-72
2023/08/15 04:55:54;;;;;;;9.85;3.20;;;;;;;;;;5015234;28;20130;-74
2023/08/15 04:58:19;;;;;;;14.52;3.65;;;;;;;;;;5014666;28;20041;-71
2023/08/15 05:00:47;;;;;;;15.75;3.10;;;;;;;;;;5012967;28;20076;-73
2023/08/15 05:03:13;;;;;;;8.95;2.63;;;;;;;;;;5013888;28;20059;-72
2023/08/15 05:05:38;;;;;;;15.23;2.85;;;;;;;;;;5017022;28;20557;-72
2023/08/15 05:08:06;;;;;;;12.77;3.20;;;;;;;;;;5021213;28;20107;-72
2023/08/15 05:10:31;;;;;;;13.52;3.42;;;;;;;;;;5048121;28;20041;-71
2023/08/15 05:12:59;;;;;;;12.63;3.20;;;;;;;;;;5019353;28;20557;-73
2023/08/15 05:15:24;;;;;;;15.52;3.00;;;;;;;;;;5019707;28;20577;-72
2023/08/15 05:17:52;;;;;;;13.02;3.38;;;;;;;;;;5017002;28;20082;-72
2023/08/15 05:20:17;;;;;;;12.77;3.40;;;;;;;;;;5003725;28;20818;-70
2023/08/15 05:22:44;;;;;;;13.88;3.15;;;;;;;;;;4992147;28;20113;-72
2023/08/15 05:25:09;;;;;;;11.13;3.22;;;;;;;;;;5019961;28;20094;-72
2023/08/15 05:27:34;;;;;;;13.27;3.67;;;;;;;;;;5049284;28;20033;-72
2023/08/15 05:29:59;;;;;;;14.65;3.38;;;;;;;;;;5017705;28;20029;-72
2023/08/15 05:32:27;;;;;;;12.98;3.65;;;;;;;;;;5018275;28;20056;-73
2023/08/15 05:34:53;;;;;;;11.55;3.08;;;;;;;;;;5047932;28;20037;-74
2023/08/15 05:37:18;;;;;;;12.80;3.63;;;;;;;;;;4997950;28;20081;-71
2023/08/15 05:39:43;;;;;;;13.80;3.03;;;;;;;;;;5018048;28;20511;-72
2023/08/15 05:42:10;;;;;;;11.93;3.53;;;;;;;;;;5016549;28;20117;-74
2023/08/15 05:44:38;;;;;;;12.13;2.83;;;;;;;;;;5021248;28;20041;-72
2023/08/15 05:47:03;;;;;;;15.20;3.50;;;;;;;;;;5017822;28;20476;-75
2023/08/15 05:49:29;;;;;;;13.00;3.15;;;;;;;;;;5018349;28;20032;-71
2023/08/15 05:51:54;;;;;;;12.75;2.92;;;;;;;;;;5019107;28;20037;-74
2023/08/15 05:54:19;;;;;;;11.02;3.00;;;;;;;;;;5037382;28;20040;-73
2023/08/15 05:56:45;;;;;;;16.27;3.20;;;;;;;;;;5017438;28;20049;-72
2023/08/15 05:59:10;;;;;;;8.75;2.97;;;;;;;;;;5007287;28;22425;-72
2023/08/15 06:01:35;;;;;;;16.13;3.75;;;;;;;;;;5017075;28;20045;-71
2023/08/15 06:04:01;;;;;;;12.63;2.78;;;;;;;;;;5018894;28;20037;-72
2023/08/15 06:06:26;;;;;;;10.35;2.45;;;;;;;;;;5018703;28;20125;-74
2023/08/15 06:08:52;;;;;;;9.35;2.63;;;;;;;;;;5021761;28;20076;-75
2023/08/15 06:11:17;;;;;;;9.73;2.75;;;;;;;;;;5017719;28;20124;-74
2023/08/15 06:13:42;;;;;;;11.57;2.95;;;;;;;;;;5022411;28;20032;-75
2023/08/15 06:16:08;;;;;;;10.55;2.60;;;;;;;;;;5018005;28;20495;-74
2023/08/15 06:18:33;;;;;;;9.48;2.22;;;;;;;;;;5017275;28;20041;-73
2023/08/15 06:20:58;;;;;;;10.60;3.17;;;;;;;;;;5003266;28;20043;-73
2023/08/15 06:23:23;;;;;;;8.50;2.40;;;;;;;;;;5017152;28;20037;-72
2023/08/15 06:25:51;;;;;;;9.55;2.47;;;;;;;;;;5023356;28;20033;-73
2023/08/15 06:28:18;;;;;;;8.48;2.10;;;;;;;;;;5020986;28;20047;-73
2023/08/15 06:30:43;;;;;;;7.18;2.40;;;;;;;;;;5045808;28;20173;-76
2023/08/15 06:33:11;;;;;;;8.23;2.25;;;;;;;;;;5017101;28;20175;-77
2023/08/15 06:35:38;;;;;;;7.82;2.28;;;;;;;;;;5016650;28;20433;-73
2023/08/15 06:38:04;;;;;;;7.50;2.30;;;;;;;;;;5014853;28;20028;-71
2023/08/15 06:40:30;;;;;;;9.25;1.98;;;;;;;;;;5047477;28;20064;-71
2023/08/15 06:42:56;;;;;;;13.27;2.35;;;;;;;;;;5013491;28;20163;-70
2023/08/15 06:45:21;;;;;;;8.60;2.17;;;;;;;;;;5016626;28;20033;-72
2023/08/15 06:47:46;;;;;;;9.27;1.88;;;;;;;;;;5020137;28;20141;-71
2023/08/15 06:50:12;;;;;;;6.85;2.03;;;;;;;;;;5021287;28;20025;-69
2023/08/15 06:52:37;;;;;;;8.55;2.25;;;;;;;;;;5017700;28;20048;-71
2023/08/15 06:55:06;;;;;;;9.15;2.67;;;;;;;;;;5016495;28;20037;-71
2023/08/15 06:57:32;;;;;;;9.50;2.30;;;;;;;;;;5015083;28;20049;-71
2023/08/15 06:59:57;;;;;;;10.73;2.30;;;;;;;;;;5013845;28;20531;-68
2023/08/15 07:02:23;;;;;;;9.68;2.30;;;;;;;;;;5015992;28;20097;-71
2023/08/15 07:04:48;;;;;;;12.70;2.60;;;;;;;;;;5017811;28;20121;-71
2023/08/15 07:07:14;;;;;;;10.93;3.08;;;;;;;;;;5011490;28;20323;-70
2023/08/15 07:09:39;;;;;;;11.27;2.70;;;;;;;;;;5009261;28;20039;-70
2023/08/15 07:12:05;;;;;;;8.57;2.40;;;;;;;;;;5014182;28;20052;-70
2023/08/15 07:14:31;;;;;;;10.43;2.42;;;;;;;;;;5014666;28;20721;-70
2023/08/15 07:16:56;;;;;;;8.15;2.30;;;;;;;;;;5043856;28;20611;-69
2023/08/15 07:19:22;;;;;;;10.05;2.20;;;;;;;;;;5018202;28;20033;-69
2023/08/15 07:21:48;;;;;;;7.78;2.38;;;;;;;;;;5017120;28;20493;-70
2023/08/15 07:24:14;;;;;;;7.88;2.28;;;;;;;;;;5020721;28;20041;-69
2023/08/15 07:26:39;;;;;;;9.05;1.90;;;;;;;;;;5016021;28;20041;-69
2023/08/15 07:29:05;;;;;;;10.23;2.40;;;;;;;;;;5014854;28;20030;-69
2023/08/15 07:31:30;;;;;;;10.48;2.10;;;;;;;;;;5015117;28;20037;-69
2023/08/15 07:34:00;;;;;;;9.02;2.35;;;;;;;;;;5016718;28;20041;-68
2023/08/15 07:36:27;;;;;;;8.68;2.20;;;;;;;;;;5016787;28;22414;-69
2023/08/15 07:38:53;;;;;;;8.93;2.10;;;;;;;;;;5014823;28;20033;-69
2023/08/15 07:41:18;;;;;;;8.73;2.17;;;;;;;;;;5047692;28;20056;-68
2023/08/15 07:43:43;;;;;;;8.32;2.08;;;;;;;;;;5017401;28;20045;-69
2023/08/15 07:46:09;;;;;;;7.45;2.47;;;;;;;;;;5016638;28;20051;-69
2023/08/15 07:48:34;;;;;;;7.78;1.95;;;;;;;;;;5029034;28;20045;-69
2023/08/15 07:51:00;;;;;;;9.05;2.42;;;;;;;;;;5014838;28;20044;-68
2023/08/15 07:53:25;;;;;;;5.85;1.52;;;;;;;;;;5015637;28;20063;-67
2023/08/15 07:55:51;;;;;;;7.72;2.15;;;;;;;;;;5019841;28;20256;-71
2023/08/15 07:58:16;;;;;;;9.40;2.40;;;;;;;;;;5017916;28;20029;-68
2023/08/15 08:00:42;;;;;;;7.25;2.10;;;;;;;;;;5015817;28;20033;-67
2023/08/15 08:03:08;;;;;;;5.70;1.75;;;;;;;;;;5018182;28;20500;-69
2023/08/15 08:05:33;;;;;;;9.27;2.10;;;;;;;;;;5015846;28;20028;-70
2023/08/15 08:07:59;;;;;;;5.90;1.50;;;;;;;;;;5019345;28;20391;-68
2023/08/15 08:10:24;;;;;;;8.48;2.00;;;;;;;;;;5041980;28;20052;-71
2023/08/15 08:12:49;;;;;;;8.07;2.10;;;;;;;;;;5017085;28;20505;-67
2023/08/15 08:15:17;;;;;;;9.30;2.15;;;;;;;;;;5019406;28;20130;-67
2023/08/15 08:17:42;;;;;;;9.98;2.35;;;;;;;;;;5013667;28;20042;-68
2023/08/15 08:20:12;;;;;;;8.35;1.85;;;;;;;;;;5012824;28;20513;-70
2023/08/15 08:22:37;;;;;;;10.93;2.05;;;;;;;;;;5001512;28;22075;-67
2023/08/15 08:25:12;;;;;;;10.35;2.00;;;;;;;;;;5018324;28;20043;-68
2023/08/15 08:27:37;;;;;;;8.40;2.30;;;;;;;;;;5015191;28;20365;-69
2023/08/15 08:30:02;;;;;;;7.35;2.08;;;;;;;;;;5045910;28;20029;-68
2023/08/15 08:32:28;;;;;;;8.23;2.10;;;;;;;;;;5014031;28;20044;-68
2023/08/15 08:34:53;;;;;;;8.00;1.95;;;;;;;;;;5016322;28;20158;-68
2023/08/15 08:37:19;;;;;;;11.80;2.50;;;;;;;;;;5018496;28;20045;-70
2023/08/15 08:39:44;;;;;;;8.82;2.30;;;;;;;;;;5014368;28;20061;-69
2023/08/15 08:42:09;;;;;;;6.53;1.80;;;;;;;;;;5008605;28;20045;-68
2023/08/15 08:44:35;;;;;;;7.68;2.00;;;;;;;;;;5002931;28;20045;-70
2023/08/15 08:47:01;;;;;;;7.30;2.05;;;;;;;;;;5012889;28;20056;-70
2023/08/15 08:49:27;;;;;;;8.50;2.08;;;;;;;;;;5018824;28;20521;-68
2023/08/15 08:51:53;;;;;;;8.25;1.98;;;;;;;;;;5015124;28;20398;-68
2023/08/15 08:54:18;;;;;;;6.40;1.73;;;;;;;;;;5015406;28;20037;-68
2023/08/15 08:56:44;;;;;;;9.65;1.90;;;;;;;;;;5003784;28;20041;-68
2023/08/15 08:59:13;;;;;;;9.07;2.20;;;;;;;;;;5017858;28;20038;-68
2023/08/15 09:01:39;;;;;;;8.25;1.85;;;;;;;;;;5016294;28;20561;-69
2023/08/15 09:04:04;;;;;;;8.77;2.00;;;;;;;;;;5012655;28;22532;-68
2023/08/15 09:06:30;;;;;;;9.75;2.15;;;;;;;;;;5015196;28;20045;-69
2023/08/15 09:08:57;;;;;;;10.27;1.95;;;;;;;;;;5018790;28;20197;-70
2023/08/15 09:11:23;;;;;;;9.55;1.90;;;;;;;;;;5018785;28;20474;-70
2023/08/15 09:13:49;;;;;;;8.23;1.92;;;;;;;;;;5045693;28;20106;-69
2023/08/15 09:16:15;;;;;;;9.00;1.83;;;;;;;;;;5011940;28;20044;-67
2023/08/15 09:18:41;;;;;;;8.55;1.73;;;;;;;;;;4999736;28;20087;-68
2023/08/15 09:21:06;;;;;;;9.07;1.92;;;;;;;;;;5011567;28;20087;-68
2023/08/15 09:23:32;;;;;;;10.85;2.10;;;;;;;;;;4999035;28;20093;-71
2023/08/15 09:26:10;;;;;;;7.60;2.03;;;;;;;;;;5045176;28;20037;-71
2023/08/15 09:28:44;;;;;;;7.85;1.85;;;;;;;;;;5012841;28;20073;-70
2023/08/15 09:31:11;;;;;;;7.75;2.00;;;;;;;;;;5012763;28;20428;-69
2023/08/15 09:33:39;;;;;;;8.13;2.08;;;;;;;;;;5000441;28;22353;-68
2023/08/15 09:36:05;;;;;;;7.57;1.90;;;;;;;;;;5039814;28;20203;-68
2023/08/15 09:38:30;;;;;;;7.78;2.03;;;;;;;;;;5041397;28;20048;-70
2023/08/15 09:40:56;;;;;;;12.60;2.15;;;;;;;;;;4999075;28;20037;-69
2023/08/15 09:43:21;;;;;;;8.65;2.13;;;;;;;;;;5011491;28;20037;-71
2023/08/15 09:45:48;;;;;;;11.82;2.38;;;;;;;;;;5010688;28;20559;-71
2023/08/15 09:48:13;;;;;;;8.02;2.13;;;;;;;;;;5011495;28;20048;-68
2023/08/15 09:50:41;;;;;;;7.63;2.13;;;;;;;;;;5012064;28;20029;-71
2023/08/15 09:53:07;;;;;;;7.85;2.28;;;;;;;;;;5015261;28;20145;-69
2023/08/15 09:55:37;;;;;;;10.95;2.10;;;;;;;;;;5013878;28;20037;-68
2023/08/15 09:58:03;;;;;;;7.00;2.00;;;;;;;;;;5014103;28;22219;-70
2023/08/15 10:00:29;;;;;;;8.45;2.17;;;;;;;;;;5030890;28;20423;-66
2023/08/15 10:03:12;;;;;;;7.35;2.30;;;;;;;;;;5002380;28;20033;-71
2023/08/15 10:05:39;;;;;;;5.88;2.05;;;;;;;;;;5012546;28;20203;-68
2023/08/15 10:08:05;;;;;;;5.55;1.50;;;;;;;;;;5012073;28;20128;-70
2023/08/15 10:10:33;;;;;;;7.07;1.73;;;;;;;;;;5015606;28;20039;-71
2023/08/15 10:12:58;;;;;;;7.60;1.92;;;;;;;;;;5011733;28;22127;-71
2023/08/15 10:15:24;;;;;;;8.85;2.20;;;;;;;;;;5018451;28;20570;-71
2023/08/15 10:17:50;;;;;;;5.88;1.90;;;;;;;;;;5039833;28;20115;-72
2023/08/15 10:20:19;;;;;;;6.97;1.95;;;;;;;;;;5008614;28;20038;-69
2023/08/15 10:22:48;;;;;;;9.38;2.08;;;;;;;;;;5008842;28;20040;-67
2023/08/15 10:25:31;;;;;;;6.40;2.10;;;;;;;;;;5044755;28;20150;-69
2023/08/15 10:27:56;;;;;;;10.50;2.15;;;;;;;;;;5010489;28;20045;-69
2023/08/15 10:30:28;;;;;;;4.90;1.60;;;;;;;;;;5043540;28;20178;-69
2023/08/15 10:32:58;;;;;;;8.05;1.90;;;;;;;;;;5011121;28;20037;-67
2023/08/15 10:35:24;;;;;;;3.72;1.60;;;;;;;;;;5014908;28;20643;-67
2023/08/15 10:37:50;;;;;;;10.55;2.72;;;;;;;;;;5001607;28;20049;-69
2023/08/15 10:40:15;;;;;;;8.27;2.10;;;;;;;;;;5014291;28;20130;-67
2023/08/15 10:43:16;;;;;;;11.23;2.42;;;;;;;;;;5013483;28;20053;-67
2023/08/15 10:45:43;;;;;;;8.52;1.75;;;;;;;;;;4985424;28;20063;-67
2023/08/15 10:48:09;;;;;;;7.03;1.90;;;;;;;;;;5004340;28;20807;-67
2023/08/15 10:50:35;;;;;;;7.03;1.60;;;;;;;;;;5008664;28;21541;-69
2023/08/15 10:53:01;;;;;;;6.28;1.85;;;;;;;;;;5040956;28;20045;-67
2023/08/15 10:55:27;;;;;;;7.90;1.85;;;;;;;;;;5014318;28;20033;-68
2023/08/15 10:57:54;;;;;;;5.47;1.70;;;;;;;;;;5014436;28;20051;-70
2023/08/15 11:00:21;;;;;;;8.20;2.05;;;;;;;;;;4998168;28;20060;-67
2023/08/15 11:02:47;;;;;;;6.70;1.88;;;;;;;;;;5017113;28;20048;-66
2023/08/15 11:05:13;;;;;;;5.90;2.00;;;;;;;;;;5027115;28;20041;-66
2023/08/15 11:07:43;;;;;;;4.70;1.65;;;;;;;;;;5012933;28;20474;-67
2023/08/15 11:10:11;;;;;;;5.47;1.63;;;;;;;;;;5017119;28;20091;-67
2023/08/15 11:12:46;;;;;;;6.60;1.92;;;;;;;;;;5000897;28;20033;-67
2023/08/15 11:15:11;;;;;;;9.35;2.30;;;;;;;;;;5011675;28;20041;-67
2023/08/15 11:17:37;;;;;;;7.65;2.15;;;;;;;;;;5010162;28;20102;-67
2023/08/15 11:20:04;;;;;;;6.00;1.70;;;;;;;;;;5013220;28;20137;-69
2023/08/15 11:22:30;;;;;;;7.57;2.00;;;;;;;;;;5011561;28;20872;-69
2023/08/15 11:24:55;;;;;;;5.93;1.73;;;;;;;;;;5011582;28;20087;-69
2023/08/15 11:27:20;;;;;;;5.20;1.50;;;;;;;;;;5013410;28;20037;-64
2023/08/15 11:29:55;;;;;;;5.90;1.60;;;;;;;;;;5013275;28;20033;-70
2023/08/15 11:32:22;;;;;;;5.70;1.70;;;;;;;;;;5011687;28;20037;-69
2023/08/15 11:34:48;;;;;;;5.72;1.80;;;;;;;;;;5013140;28;20902;-67
2023/08/15 11:37:16;;;;;;;5.18;1.55;;;;;;;;;;5012387;28;20287;-70
2023/08/15 11:39:41;;;;;;;7.05;2.20;;;;;;;;;;5013506;28;20044;-69
2023/08/15 11:42:07;;;;;;;5.10;1.70;;;;;;;;;;5017821;28;20028;-68
2023/08/15 11:44:32;;;;;;;6.68;1.60;;;;;;;;;;5016967;28;20037;-68
2023/08/15 11:46:58;;;;;;;5.72;1.35;;;;;;;;;;5011885;28;20040;-67
2023/08/15 11:49:25;;;;;;;6.93;1.70;;;;;;;;;;5008333;28;20037;-67
2023/08/15 11:51:51;;;;;;;3.88;1.30;;;;;;;;;;5012126;28;20037;-66
2023/08/15 11:54:24;;;;;;;6.88;1.77;;;;;;;;;;5010579;28;20636;-68
2023/08/15 11:56:50;;;;;;;4.32;1.55;;;;;;;;;;5013849;28;20382;-68
2023/08/15 11:59:18;;;;;;;7.35;1.98;;;;;;;;;;5013329;28;20412;-68
2023/08/15 12:01:43;;;;;;;7.90;1.50;;;;;;;;;;5032437;28;20037;-69
2023/08/15 12:04:15;;;;;;;5.10;1.58;;;;;;;;;;5042948;28;20739;-70
2023/08/15 12:06:40;;;;;;;6.00;1.40;;;;;;;;;;5035498;28;20037;-67
2023/08/15 12:09:08;;;;;;;6.60;1.50;;;;;;;;;;5017117;28;20072;-67
2023/08/15 12:11:34;;;;;;;6.07;1.50;;;;;;;;;;5011496;28;20091;-68
2023/08/15 12:13:59;;;;;;;8.32;1.65;;;;;;;;;;5015379;28;20040;-67
2023/08/15 12:16:25;;;;;;;9.13;1.65;;;;;;;;;;5015056;28;20230;-68
2023/08/15 12:18:50;;;;;;;5.03;1.35;;;;;;;;;;5014587;28;20025;-69
2023/08/15 12:21:15;;;;;;;9.00;1.45;;;;;;;;;;5034222;28;20272;-69
2023/08/15 12:23:44;;;;;;;5.35;1.60;;;;;;;;;;5012216;28;20539;-69
2023/08/15 12:26:09;;;;;;;6.80;1.58;;;;;;;;;;5006109;28;20429;-71
2023/08/15 12:28:37;;;;;;;3.72;1.30;;;;;;;;;;5016668;28;20084;-69
2023/08/15 12:31:05;;;;;;;4.70;1.80;;;;;;;;;;5014472;28;20461;-70
2023/08/15 12:33:33;;;;;;;5.65;1.52;;;;;;;;;;5000729;28;20072;-71
2023/08/15 12:35:59;;;;;;;6.07;1.42;;;;;;;;;;5013382;28;20042;-67
2023/08/15 12:38:27;;;;;;;6.32;1.45;;;;;;;;;;5009539;28;20065;-70
2023/08/15 12:40:53;;;;;;;9.98;1.40;;;;;;;;;;4992734;28;20034;-70
2023/08/15 12:43:18;;;;;;;6.32;1.60;;;;;;;;;;5011895;28;20040;-69
2023/08/15 12:45:43;;;;;;;7.82;1.42;;;;;;;;;;5015554;28;20344;-69
2023/08/15 12:48:10;;;;;;;6.80;1.30;;;;;;;;;;5028131;28;21892;-68
2023/08/15 12:50:35;;;;;;;7.03;1.90;;;;;;;;;;5015325;28;20045;-68
2023/08/15 12:53:01;;;;;;;6.47;1.52;;;;;;;;;;5018201;28;20060;-67
2023/08/15 12:55:26;;;;;;;5.55;1.55;;;;;;;;;;5014230;28;20310;-68
2023/08/15 12:57:51;;;;;;;6.05;1.50;;;;;;;;;;5014241;28;20075;-68
2023/08/15 13:00:19;;;;;;;5.93;1.52;;;;;;;;;;5043842;28;20479;-67
2023/08/15 13:02:44;;;;;;;5.95;1.70;;;;;;;;;;5013700;28;20041;-70
2023/08/15 13:05:10;;;;;;;6.57;1.50;;;;;;;;;;5012619;28;20178;-68
2023/08/15 13:07:35;;;;;;;4.68;1.50;;;;;;;;;;5000540;28;20037;-71
2023/08/15 13:10:01;;;;;;;6.82;1.63;;;;;;;;;;5013206;28;20033;-67
2023/08/15 13:12:26;;;;;;;6.55;1.65;;;;;;;;;;5014878;28;20067;-66
2023/08/15 13:14:54;;;;;;;5.85;1.80;;;;;;;;;;5003921;28;20120;-68
2023/08/15 13:17:19;;;;;;;6.45;1.38;;;;;;;;;;5027115;28;20143;-71
2023/08/15 13:19:45;;;;;;;5.03;1.40;;;;;;;;;;5013652;28;20040;-69
2023/08/15 13:22:10;;;;;;;3.65;1.50;;;;;;;;;;5044707;28;20034;-69
2023/08/15 13:24:38;;;;;;;6.18;1.45;;;;;;;;;;5024350;28;20359;-65
2023/08/15 13:27:04;;;;;;;5.45;1.50;;;;;;;;;;5017025;28;20491;-71
2023/08/15 13:29:29;;;;;;;7.20;1.73;;;;;;;;;;5014168;28;20033;-70
2023/08/15 13:31:54;;;;;;;5.35;1.42;;;;;;;;;;5019046;28;20029;-68
2023/08/15 13:34:23;;;;;;;7.15;1.50;;;;;;;;;;5017522;28;20114;-69
2023/08/15 13:36:48;;;;;;;4.75;1.40;;;;;;;;;;5017581;28;20053;-67
2023/08/15 13:39:14;;;;;;;7.22;1.67;;;;;;;;;;5018296;28;20374;-67
2023/08/15 13:41:39;;;;;;;4.25;1.20;;;;;;;;;;5015653;28;20598;-69
2023/08/15 13:44:05;;;;;;;4.47;1.30;;;;;;;;;;5018390;28;20091;-68
2023/08/15 13:46:31;;;;;;;4.25;1.38;;;;;;;;;;5022284;28;20041;-67
2023/08/15 13:48:57;;;;;;;4.63;1.40;;;;;;;;;;5019506;28;20780;-67
2023/08/15 13:51:27;;;;;;;8.20;1.60;;;;;;;;;;5018687;28;20509;-69
2023/08/15 13:53:52;;;;;;;43.80;3.72;;;;;;;;;;5020731;28;20084;-71
2023/08/15 13:56:17;;;;;;;6.30;1.30;;;;;;;;;;5022083;28;20045;-69
2023/08/15 13:58:43;;;;;;;5.00;1.50;;;;;;;;;;5018407;28;20071;-70
2023/08/15 14:01:08;;;;;;;5.13;1.65;;;;;;;;;;5012941;28;20607;-68
2023/08/15 14:03:34;;;;;;;5.18;1.30;;;;;;;;;;5016444;28;20037;-69
2023/08/15 14:06:03;;;;;;;5.35;1.55;;;;;;;;;;5017205;28;20047;-72
2023/08/15 14:08:29;;;;;;;4.85;1.33;;;;;;;;;;5017576;28;20040;-70
2023/08/15 14:10:57;;;;;;;3.55;1.25;;;;;;;;;;5015424;28;20047;-72
2023/08/15 14:13:25;;;;;;;4.75;1.50;;;;;;;;;;5018787;28;20592;-69
2023/08/15 14:15:50;;;;;;;5.88;1.58;;;;;;;;;;5012155;28;20033;-71
2023/08/15 14:18:15;;;;;;;4.70;1.33;;;;;;;;;;5036837;28;20033;-68
2023/08/15 14:20:40;;;;;;;3.17;1.17;;;;;;;;;;5016521;28;20029;-71
2023/08/15 14:23:06;;;;;;;5.45;1.40;;;;;;;;;;5016211;28;20714;-70
2023/08/15 14:25:32;;;;;;;6.45;1.42;;;;;;;;;;5017611;28;20792;-70
2023/08/15 14:27:57;;;;;;;4.85;1.58;;;;;;;;;;5048206;28;20033;-71
2023/08/15 14:30:22;;;;;;;3.75;1.20;;;;;;;;;;5016941;28;20035;-70
2023/08/15 14:32:48;;;;;;;4.15;1.10;;;;;;;;;;5016332;28;20037;-71
2023/08/15 14:35:14;;;;;;;4.80;1.42;;;;;;;;;;5018131;28;20117;-71